SPSUT EPGL-EPKT
Flight info
| Callsign | SPSUT |
|---|---|
| Flight time | N/A |
| Altitude | 4000 |
| Route | INSAB IFR DCT KAX STAY1/0100 KAX DCT INSAB VFR |
| Aircraft | P06T/L-SBDGRY/S |
Departure
| Time | 2026-04-18 19:02 |
|---|---|
| Airport | Gliwice-Trynek Airfield (EPGL) |
Arrival
| Time | N/A |
|---|---|
| Airport | Katowice Wojciech Korfanty International Airport (EPKT) |
| Time | Latitude | Longitude | Altitude | Speed | Heading |
|---|---|---|---|---|---|
| 2026-04-18 19:02 | 50.30768 | 18.87534 | 3478 ft | 101 kts | 37° |
| 2026-04-18 19:02 | 50.31319 | 18.88209 | 3617 ft | 101 kts | 37° |
| 2026-04-18 19:03 | 50.31876 | 18.88896 | 3776 ft | 103 kts | 37° |
| 2026-04-18 19:03 | 50.32250 | 18.89354 | 3876 ft | 103 kts | 37° |
| 2026-04-18 19:03 | 50.32821 | 18.90060 | 3976 ft | 109 kts | 38° |
| 2026-04-18 19:04 | 50.33202 | 18.92481 | 3988 ft | 125 kts | 80° |
| 2026-04-18 19:04 | 50.33403 | 18.93825 | 3993 ft | 128 kts | 76° |
| 2026-04-18 19:04 | 50.33600 | 18.95200 | 3994 ft | 130 kts | 76° |
| 2026-04-18 19:04 | 50.33804 | 18.96590 | 3994 ft | 131 kts | 76° |
| 2026-04-18 19:05 | 50.34010 | 18.97991 | 3993 ft | 132 kts | 76° |
| 2026-04-18 19:05 | 50.34420 | 19.00804 | 3995 ft | 133 kts | 76° |
| 2026-04-18 19:05 | 50.34626 | 19.02212 | 3994 ft | 133 kts | 76° |
| 2026-04-18 19:06 | 50.34831 | 19.03622 | 3993 ft | 133 kts | 76° |
| 2026-04-18 19:06 | 50.35243 | 19.06440 | 3993 ft | 133 kts | 76° |
| 2026-04-18 19:06 | 50.35449 | 19.07851 | 3992 ft | 133 kts | 76° |
| 2026-04-18 19:07 | 50.35653 | 19.09257 | 3996 ft | 132 kts | 76° |
| 2026-04-18 19:07 | 50.35860 | 19.10663 | 3993 ft | 132 kts | 76° |
| 2026-04-18 19:07 | 50.36064 | 19.12067 | 3993 ft | 132 kts | 76° |
| 2026-04-18 19:07 | 50.36269 | 19.13472 | 3994 ft | 133 kts | 76° |
| 2026-04-18 19:08 | 50.36475 | 19.14880 | 3996 ft | 133 kts | 76° |
| 2026-04-18 19:08 | 50.36678 | 19.16287 | 3992 ft | 133 kts | 76° |
| 2026-04-18 19:08 | 50.36880 | 19.17665 | 3994 ft | 133 kts | 76° |
| 2026-04-18 19:08 | 50.37084 | 19.19074 | 3992 ft | 133 kts | 76° |
| 2026-04-18 19:09 | 50.37288 | 19.20481 | 3992 ft | 133 kts | 76° |
| 2026-04-18 19:09 | 50.37492 | 19.21888 | 3993 ft | 132 kts | 76° |
| 2026-04-18 19:09 | 50.37695 | 19.23297 | 3990 ft | 132 kts | 76° |
| 2026-04-18 19:09 | 50.37899 | 19.24702 | 3990 ft | 132 kts | 76° |
| 2026-04-18 19:10 | 50.38101 | 19.26110 | 3992 ft | 132 kts | 76° |
| 2026-04-18 19:10 | 50.38305 | 19.27515 | 3994 ft | 132 kts | 76° |
| 2026-04-18 19:10 | 50.38506 | 19.28901 | 3990 ft | 132 kts | 76° |
| 2026-04-18 19:10 | 50.38713 | 19.30326 | 3990 ft | 132 kts | 76° |
| 2026-04-18 19:11 | 50.38911 | 19.31717 | 3990 ft | 133 kts | 76° |
| 2026-04-18 19:11 | 50.39113 | 19.33127 | 3992 ft | 133 kts | 76° |
| 2026-04-18 19:11 | 50.39314 | 19.34534 | 3988 ft | 133 kts | 75° |
| 2026-04-18 19:11 | 50.39818 | 19.35688 | 3971 ft | 131 kts | 30° |
| 2026-04-18 19:12 | 50.40694 | 19.35858 | 3976 ft | 129 kts | 352° |
| 2026-04-18 19:12 | 50.41588 | 19.35720 | 3978 ft | 129 kts | 357° |
| 2026-04-18 19:12 | 50.42480 | 19.35556 | 3978 ft | 130 kts | 340° |
| 2026-04-18 19:12 | 50.43171 | 19.34643 | 3900 ft | 135 kts | 313° |
| 2026-04-18 19:13 | 50.43838 | 19.33591 | 3782 ft | 133 kts | 317° |
| 2026-04-18 19:13 | 50.44485 | 19.32587 | 3649 ft | 129 kts | 316° |
| 2026-04-18 19:13 | 50.45116 | 19.31605 | 3526 ft | 127 kts | 316° |
| 2026-04-18 19:13 | 50.45739 | 19.30630 | 3402 ft | 126 kts | 316° |
| 2026-04-18 19:14 | 50.46361 | 19.29662 | 3271 ft | 126 kts | 316° |
| 2026-04-18 19:14 | 50.46977 | 19.28694 | 3144 ft | 125 kts | 316° |
| 2026-04-18 19:14 | 50.47511 | 19.27624 | 3001 ft | 127 kts | 290° |
| 2026-04-18 19:14 | 50.47526 | 19.26259 | 2990 ft | 125 kts | 271° |
| 2026-04-18 19:15 | 50.47558 | 19.24896 | 2924 ft | 128 kts | 272° |
| 2026-04-18 19:15 | 50.47561 | 19.23457 | 2755 ft | 135 kts | 272° |
| 2026-04-18 19:15 | 50.47567 | 19.21956 | 2569 ft | 139 kts | 271° |
| 2026-04-18 19:15 | 50.47569 | 19.20424 | 2376 ft | 141 kts | 272° |
| 2026-04-18 19:16 | 50.47573 | 19.18902 | 2190 ft | 139 kts | 272° |
| 2026-04-18 19:16 | 50.47575 | 19.17449 | 2008 ft | 129 kts | 272° |
| 2026-04-18 19:16 | 50.47576 | 19.16138 | 1843 ft | 108 kts | 272° |
| 2026-04-18 19:16 | 50.47583 | 19.15034 | 1697 ft | 97 kts | 271° |
| 2026-04-18 19:17 | 50.47576 | 19.13995 | 1555 ft | 92 kts | 270° |
| 2026-04-18 19:17 | 50.47587 | 19.13066 | 1413 ft | 85 kts | 274° |
| 2026-04-18 19:17 | 50.47592 | 19.12148 | 1301 ft | 86 kts | 270° |
| 2026-04-18 19:17 | 50.47590 | 19.11212 | 1230 ft | 85 kts | 272° |
| 2026-04-18 19:18 | 50.47598 | 19.10256 | 1351 ft | 92 kts | 272° |
| 2026-04-18 19:18 | 50.47593 | 19.09230 | 1548 ft | 94 kts | 270° |
| 2026-04-18 19:18 | 50.47598 | 19.08191 | 1724 ft | 97 kts | 272° |
| 2026-04-18 19:18 | 50.47599 | 19.07123 | 1908 ft | 98 kts | 272° |
| 2026-04-18 19:19 | 50.47600 | 19.06050 | 2087 ft | 98 kts | 272° |
| 2026-04-18 19:19 | 50.47601 | 19.04974 | 2262 ft | 98 kts | 272° |
| 2026-04-18 19:19 | 50.47602 | 19.03902 | 2442 ft | 98 kts | 272° |
| 2026-04-18 19:19 | 50.47601 | 19.02827 | 2615 ft | 98 kts | 272° |
| 2026-04-18 19:20 | 50.47602 | 19.01759 | 2796 ft | 96 kts | 272° |
| 2026-04-18 19:20 | 50.47606 | 19.00658 | 2949 ft | 105 kts | 272° |
| 2026-04-18 19:20 | 50.47614 | 18.99432 | 2990 ft | 120 kts | 272° |
| 2026-04-18 19:20 | 50.47473 | 18.98101 | 2992 ft | 131 kts | 241° |
| 2026-04-18 19:21 | 50.46732 | 18.97281 | 2977 ft | 137 kts | 192° |
| 2026-04-18 19:21 | 50.45839 | 18.97604 | 2978 ft | 138 kts | 143° |
| 2026-04-18 19:21 | 50.45380 | 18.98875 | 2989 ft | 137 kts | 101° |
| 2026-04-18 19:21 | 50.45144 | 19.00324 | 2997 ft | 138 kts | 107° |
| 2026-04-18 19:22 | 50.44851 | 19.01756 | 3000 ft | 138 kts | 105° |
| 2026-04-18 19:22 | 50.44568 | 19.03202 | 2996 ft | 139 kts | 106° |
| 2026-04-18 19:22 | 50.44341 | 19.04674 | 2999 ft | 139 kts | 90° |
| 2026-04-18 19:22 | 50.44414 | 19.06176 | 2999 ft | 137 kts | 85° |
| 2026-04-18 19:23 | 50.44449 | 19.07654 | 3000 ft | 135 kts | 86° |
| 2026-04-18 19:23 | 50.44494 | 19.09119 | 2997 ft | 134 kts | 86° |
| 2026-04-18 19:23 | 50.44536 | 19.10574 | 2997 ft | 133 kts | 86° |
| 2026-04-18 19:23 | 50.44580 | 19.12028 | 2993 ft | 133 kts | 86° |
| 2026-04-18 19:24 | 50.44623 | 19.13475 | 2995 ft | 133 kts | 86° |
| 2026-04-18 19:24 | 50.44663 | 19.14894 | 2993 ft | 133 kts | 86° |
| 2026-04-18 19:24 | 50.44708 | 19.16372 | 2996 ft | 133 kts | 86° |
| 2026-04-18 19:24 | 50.44749 | 19.17817 | 2997 ft | 132 kts | 86° |
| 2026-04-18 19:25 | 50.44790 | 19.19262 | 2995 ft | 133 kts | 86° |
| 2026-04-18 19:25 | 50.44830 | 19.20707 | 2994 ft | 132 kts | 86° |
| 2026-04-18 19:25 | 50.44869 | 19.22147 | 2997 ft | 132 kts | 86° |
| 2026-04-18 19:25 | 50.44911 | 19.23592 | 2995 ft | 133 kts | 86° |
| 2026-04-18 19:26 | 50.44949 | 19.25020 | 2992 ft | 133 kts | 86° |
| 2026-04-18 19:26 | 50.44990 | 19.26462 | 2993 ft | 133 kts | 86° |
| 2026-04-18 19:26 | 50.45215 | 19.27831 | 2979 ft | 131 kts | 52° |
| 2026-04-18 19:26 | 50.45991 | 19.28464 | 2979 ft | 129 kts | 2° |
| 2026-04-18 19:27 | 50.46787 | 19.27926 | 2983 ft | 129 kts | 314° |
| 2026-04-18 19:27 | 50.47377 | 19.26861 | 2988 ft | 129 kts | 314° |
| 2026-04-18 19:27 | 50.47723 | 19.25583 | 2958 ft | 134 kts | 271° |
| 2026-04-18 19:27 | 50.47613 | 19.24092 | 2816 ft | 142 kts | 266° |
| 2026-04-18 19:28 | 50.47581 | 19.22528 | 2626 ft | 144 kts | 271° |
| 2026-04-18 19:28 | 50.47570 | 19.20982 | 2424 ft | 138 kts | 271° |
| 2026-04-18 19:28 | 50.47572 | 19.19502 | 2234 ft | 133 kts | 272° |
| 2026-04-18 19:28 | 50.47575 | 19.18059 | 2043 ft | 132 kts | 272° |
| 2026-04-18 19:29 | 50.47578 | 19.16627 | 1859 ft | 131 kts | 272° |
| 2026-04-18 19:29 | 50.47582 | 19.15333 | 1749 ft | 107 kts | 271° |
| 2026-04-18 19:29 | 50.47585 | 19.14188 | 1570 ft | 104 kts | 272° |
| 2026-04-18 19:29 | 50.47589 | 19.13146 | 1431 ft | 88 kts | 271° |
| 2026-04-18 19:30 | 50.47590 | 19.12196 | 1280 ft | 85 kts | 271° |
| 2026-04-18 19:30 | 50.47593 | 19.11278 | 1156 ft | 84 kts | 272° |
| 2026-04-18 19:30 | 50.47596 | 19.10359 | 1065 ft | 86 kts | 271° |
| 2026-04-18 19:30 | 50.47595 | 19.09478 | 1027 ft | 66 kts | 272° |
| 2026-04-18 19:31 | 50.47600 | 19.08834 | 1016 ft | 69 kts | 270° |
| 2026-04-18 19:31 | 50.47596 | 19.07972 | 1159 ft | 83 kts | 271° |
| 2026-04-18 19:31 | 50.47617 | 19.07045 | 1379 ft | 87 kts | 274° |
| 2026-04-18 19:31 | 50.47646 | 19.06038 | 1577 ft | 99 kts | 274° |
| 2026-04-18 19:32 | 50.47678 | 19.04907 | 1828 ft | 107 kts | 274° |
| 2026-04-18 19:32 | 50.47708 | 19.03720 | 2089 ft | 111 kts | 274° |
| 2026-04-18 19:32 | 50.47739 | 19.02500 | 2341 ft | 113 kts | 274° |
| 2026-04-18 19:32 | 50.47772 | 19.01258 | 2601 ft | 114 kts | 274° |
| 2026-04-18 19:33 | 50.47807 | 19.00030 | 2853 ft | 114 kts | 274° |
| 2026-04-18 19:33 | 50.47832 | 18.98783 | 3103 ft | 115 kts | 265° |
| 2026-04-18 19:33 | 50.47421 | 18.97733 | 3319 ft | 118 kts | 216° |
| 2026-04-18 19:33 | 50.46629 | 18.97480 | 3554 ft | 117 kts | 180° |
| 2026-04-18 19:34 | 50.45820 | 18.97381 | 3809 ft | 116 kts | 186° |
| 2026-04-18 19:34 | 50.45009 | 18.97255 | 3988 ft | 123 kts | 186° |
| 2026-04-18 19:34 | 50.44110 | 18.97110 | 4004 ft | 135 kts | 186° |
| 2026-04-18 19:34 | 50.43146 | 18.96956 | 4002 ft | 142 kts | 186° |
| 2026-04-18 19:35 | 50.42152 | 18.96834 | 4000 ft | 145 kts | 176° |
| 2026-04-18 19:35 | 50.41278 | 18.97553 | 3988 ft | 146 kts | 127° |
| 2026-04-18 19:35 | 50.41009 | 18.99047 | 3988 ft | 145 kts | 91° |
| 2026-04-18 19:35 | 50.40918 | 19.00619 | 3994 ft | 145 kts | 97° |
| 2026-04-18 19:36 | 50.40784 | 19.02208 | 3996 ft | 144 kts | 96° |
| 2026-04-18 19:36 | 50.40670 | 19.03731 | 3995 ft | 141 kts | 96° |
| 2026-04-18 19:36 | 50.40553 | 19.05247 | 3995 ft | 139 kts | 96° |
| 2026-04-18 19:36 | 50.40437 | 19.06750 | 3994 ft | 139 kts | 96° |
| 2026-04-18 19:37 | 50.40283 | 19.08239 | 3989 ft | 139 kts | 109° |
| 2026-04-18 19:37 | 50.39619 | 19.09281 | 3981 ft | 140 kts | 159° |
| 2026-04-18 19:37 | 50.38659 | 19.09398 | 3986 ft | 139 kts | 179° |
| 2026-04-18 19:37 | 50.37694 | 19.09498 | 3989 ft | 139 kts | 175° |
| 2026-04-18 19:38 | 50.36748 | 19.09756 | 3984 ft | 139 kts | 153° |
| 2026-04-18 19:38 | 50.36169 | 19.10902 | 3978 ft | 138 kts | 103° |
| 2026-04-18 19:38 | 50.36210 | 19.12382 | 3987 ft | 137 kts | 83° |
| 2026-04-18 19:38 | 50.36265 | 19.13869 | 3989 ft | 137 kts | 87° |
| 2026-04-18 19:39 | 50.36316 | 19.15360 | 3991 ft | 137 kts | 86° |
| 2026-04-18 19:39 | 50.36366 | 19.16852 | 3993 ft | 137 kts | 86° |
| 2026-04-18 19:39 | 50.36419 | 19.18347 | 3993 ft | 138 kts | 86° |
| 2026-04-18 19:39 | 50.36467 | 19.19833 | 3995 ft | 138 kts | 86° |
| 2026-04-18 19:40 | 50.36527 | 19.21340 | 3992 ft | 138 kts | 82° |
| 2026-04-18 19:40 | 50.36943 | 19.22660 | 3986 ft | 136 kts | 52° |
| 2026-04-18 19:40 | 50.37474 | 19.23892 | 3988 ft | 136 kts | 57° |
| 2026-04-18 19:40 | 50.37987 | 19.25139 | 3987 ft | 136 kts | 56° |
| 2026-04-18 19:41 | 50.38505 | 19.26384 | 3988 ft | 136 kts | 56° |
| 2026-04-18 19:41 | 50.39027 | 19.27638 | 3918 ft | 140 kts | 56° |
| 2026-04-18 19:41 | 50.39568 | 19.28946 | 3803 ft | 145 kts | 56° |
| 2026-04-18 19:41 | 50.40121 | 19.30278 | 3679 ft | 147 kts | 56° |
| 2026-04-18 19:42 | 50.40677 | 19.31624 | 3557 ft | 146 kts | 56° |
| 2026-04-18 19:42 | 50.41224 | 19.32951 | 3432 ft | 144 kts | 56° |
| 2026-04-18 19:42 | 50.41915 | 19.34031 | 3296 ft | 142 kts | 22° |
| 2026-04-18 19:42 | 50.42862 | 19.33975 | 3152 ft | 141 kts | 336° |
| 2026-04-18 19:43 | 50.43733 | 19.33277 | 3029 ft | 140 kts | 336° |
| 2026-04-18 19:43 | 50.44619 | 19.32673 | 2991 ft | 135 kts | 336° |
| 2026-04-18 19:43 | 50.45460 | 19.32062 | 2986 ft | 132 kts | 334° |
| 2026-04-18 19:43 | 50.46173 | 19.31225 | 2977 ft | 131 kts | 313° |
| 2026-04-18 19:44 | 50.46704 | 19.30054 | 2940 ft | 132 kts | 300° |
| 2026-04-18 19:44 | 50.47108 | 19.28758 | 2911 ft | 133 kts | 295° |
| 2026-04-18 19:44 | 50.47489 | 19.25940 | 2847 ft | 135 kts | 277° |
| 2026-04-18 19:45 | 50.47565 | 19.24446 | 2750 ft | 137 kts | 275° |
| 2026-04-18 19:45 | 50.47603 | 19.22940 | 2606 ft | 138 kts | 272° |
| 2026-04-18 19:45 | 50.47590 | 19.21455 | 2447 ft | 134 kts | 269° |
| 2026-04-18 19:45 | 50.47537 | 19.20011 | 2302 ft | 132 kts | 268° |
| 2026-04-18 19:46 | 50.47481 | 19.18576 | 2133 ft | 132 kts | 269° |
| 2026-04-18 19:46 | 50.47470 | 19.17142 | 1981 ft | 131 kts | 272° |
| 2026-04-18 19:46 | 50.47494 | 19.15719 | 1818 ft | 126 kts | 273° |
| 2026-04-18 19:46 | 50.47523 | 19.14474 | 1660 ft | 111 kts | 273° |
| 2026-04-18 19:47 | 50.47557 | 19.13241 | 1471 ft | 114 kts | 274° |
| 2026-04-18 19:47 | 50.47590 | 19.12025 | 1303 ft | 101 kts | 271° |
| 2026-04-18 19:47 | 50.47590 | 19.10990 | 1184 ft | 92 kts | 271° |
| 2026-04-18 19:47 | 50.47593 | 19.09999 | 1066 ft | 90 kts | 272° |
| 2026-04-18 19:48 | 50.47600 | 19.09191 | 1016 ft | 63 kts | 271° |
| 2026-04-18 19:48 | 50.47602 | 19.08350 | 1104 ft | 86 kts | 271° |
| 2026-04-18 19:48 | 50.47602 | 19.07271 | 1206 ft | 110 kts | 271° |
| 2026-04-18 19:48 | 50.47587 | 19.06044 | 1450 ft | 114 kts | 270° |
| 2026-04-18 19:49 | 50.47573 | 19.04786 | 1703 ft | 116 kts | 270° |
| 2026-04-18 19:49 | 50.47556 | 19.03533 | 1959 ft | 112 kts | 270° |
| 2026-04-18 19:49 | 50.47536 | 19.02362 | 2168 ft | 108 kts | 270° |
| 2026-04-18 19:49 | 50.47515 | 19.01179 | 2368 ft | 106 kts | 270° |
| 2026-04-18 19:50 | 50.47783 | 19.00166 | 2530 ft | 103 kts | 318° |
| 2026-04-18 19:50 | 50.48450 | 18.99895 | 2677 ft | 102 kts | 10° |
| 2026-04-18 19:50 | 50.49126 | 19.00090 | 2885 ft | 99 kts | 6° |
| 2026-04-18 19:50 | 50.49833 | 19.00214 | 2989 ft | 107 kts | 6° |
| 2026-04-18 19:51 | 50.50603 | 19.00344 | 3006 ft | 118 kts | 6° |
| 2026-04-18 19:51 | 50.51443 | 19.00487 | 2997 ft | 124 kts | 6° |
| 2026-04-18 19:51 | 50.52314 | 19.00636 | 3001 ft | 127 kts | 6° |
| 2026-04-18 19:51 | 50.53184 | 19.00782 | 3099 ft | 122 kts | 6° |
| 2026-04-18 19:52 | 50.53996 | 19.00922 | 3248 ft | 116 kts | 6° |
| 2026-04-18 19:52 | 50.54794 | 19.01057 | 3396 ft | 113 kts | 6° |
| 2026-04-18 19:52 | 50.55560 | 19.01188 | 3538 ft | 111 kts | 6° |
| 2026-04-18 19:52 | 50.56328 | 19.01323 | 3689 ft | 109 kts | 6° |
| 2026-04-18 19:53 | 50.57028 | 19.01717 | 3814 ft | 110 kts | 41° |
| 2026-04-18 19:53 | 50.57295 | 19.02820 | 3926 ft | 112 kts | 90° |
| 2026-04-18 19:53 | 50.57327 | 19.05391 | 4003 ft | 124 kts | 86° |
| 2026-04-18 19:54 | 50.57372 | 19.06775 | 4001 ft | 128 kts | 86° |
| 2026-04-18 19:54 | 50.57415 | 19.08172 | 4000 ft | 131 kts | 86° |
| 2026-04-18 19:54 | 50.57462 | 19.09622 | 3998 ft | 132 kts | 86° |
| 2026-04-18 19:54 | 50.57506 | 19.11066 | 4001 ft | 132 kts | 86° |
| 2026-04-18 19:55 | 50.57553 | 19.12510 | 3999 ft | 133 kts | 86° |
| 2026-04-18 19:55 | 50.57597 | 19.13961 | 4000 ft | 133 kts | 86° |
| 2026-04-18 19:55 | 50.57641 | 19.15409 | 3998 ft | 133 kts | 86° |
| 2026-04-18 19:55 | 50.57647 | 19.16859 | 3992 ft | 133 kts | 100° |
| 2026-04-18 19:56 | 50.57370 | 19.17715 | 3986 ft | 134 kts | 128° |
| 2026-04-18 19:56 | 50.56783 | 19.18857 | 3989 ft | 134 kts | 126° |
| 2026-04-18 19:56 | 50.56229 | 19.20035 | 3990 ft | 134 kts | 126° |
| 2026-04-18 19:56 | 50.55668 | 19.21210 | 3989 ft | 135 kts | 126° |
| 2026-04-18 19:57 | 50.55103 | 19.22393 | 3993 ft | 136 kts | 126° |
| 2026-04-18 19:57 | 50.54537 | 19.23578 | 3994 ft | 136 kts | 126° |
| 2026-04-18 19:57 | 50.53964 | 19.24771 | 3992 ft | 136 kts | 126° |
| 2026-04-18 19:57 | 50.53394 | 19.25964 | 3992 ft | 137 kts | 126° |
| 2026-04-18 19:58 | 50.52818 | 19.27164 | 3937 ft | 141 kts | 126° |
| 2026-04-18 19:58 | 50.52040 | 19.28101 | 3799 ft | 147 kts | 165° |
| 2026-04-18 19:58 | 50.51025 | 19.27972 | 3670 ft | 149 kts | 194° |
| 2026-04-18 19:58 | 50.50034 | 19.27505 | 3551 ft | 149 kts | 200° |
| 2026-04-18 19:59 | 50.49045 | 19.26984 | 3432 ft | 150 kts | 197° |
| 2026-04-18 19:59 | 50.48042 | 19.26549 | 3313 ft | 150 kts | 195° |
| 2026-04-18 19:59 | 50.47117 | 19.25865 | 3195 ft | 148 kts | 221° |
| 2026-04-18 19:59 | 50.46625 | 19.24517 | 2938 ft | 145 kts | 261° |
| 2026-04-18 20:00 | 50.46711 | 19.22941 | 2636 ft | 144 kts | 284° |
| 2026-04-18 20:00 | 50.46937 | 19.21469 | 2469 ft | 139 kts | 284° |
| 2026-04-18 20:00 | 50.47151 | 19.19979 | 2374 ft | 136 kts | 279° |
| 2026-04-18 20:00 | 50.47224 | 19.18493 | 2209 ft | 138 kts | 275° |
| 2026-04-18 20:01 | 50.47287 | 19.17015 | 2046 ft | 134 kts | 276° |
| 2026-04-18 20:01 | 50.47357 | 19.15582 | 1774 ft | 120 kts | 276° |
| 2026-04-18 20:01 | 50.47443 | 19.14363 | 1583 ft | 109 kts | 277° |
| 2026-04-18 20:01 | 50.47522 | 19.13204 | 1424 ft | 106 kts | 276° |
| 2026-04-18 20:02 | 50.47573 | 19.12072 | 1282 ft | 96 kts | 273° |
| 2026-04-18 20:02 | 50.47592 | 19.11123 | 1135 ft | 83 kts | 272° |
| 2026-04-18 20:02 | 50.47595 | 19.10235 | 1044 ft | 80 kts | 272° |
| 2026-04-18 20:02 | 50.47599 | 19.09478 | 1013 ft | 57 kts | 271° |
| 2026-04-18 20:03 | 50.47599 | 19.08703 | 1077 ft | 81 kts | 271° |
| 2026-04-18 20:03 | 50.47587 | 19.07773 | 1271 ft | 94 kts | 269° |
| 2026-04-18 20:03 | 50.47266 | 19.06823 | 1500 ft | 107 kts | 216° |
| 2026-04-18 20:03 | 50.46548 | 19.06375 | 1730 ft | 116 kts | 199° |
| 2026-04-18 20:04 | 50.45776 | 19.05943 | 1974 ft | 119 kts | 200° |
| 2026-04-18 20:04 | 50.45060 | 19.05301 | 2220 ft | 120 kts | 225° |
| 2026-04-18 20:04 | 50.44444 | 19.04435 | 2471 ft | 117 kts | 219° |
| 2026-04-18 20:04 | 50.43821 | 19.03652 | 2719 ft | 113 kts | 220° |
| 2026-04-18 20:05 | 50.43224 | 19.02903 | 2964 ft | 111 kts | 219° |
| 2026-04-18 20:05 | 50.42573 | 19.02091 | 2988 ft | 125 kts | 219° |
| 2026-04-18 20:05 | 50.41866 | 19.01215 | 2972 ft | 133 kts | 219° |
| 2026-04-18 20:05 | 50.41127 | 19.00300 | 2973 ft | 137 kts | 219° |
| 2026-04-18 20:06 | 50.40373 | 18.99371 | 2973 ft | 139 kts | 219° |
| 2026-04-18 20:06 | 50.39611 | 18.98426 | 2974 ft | 140 kts | 219° |
| 2026-04-18 20:06 | 50.38847 | 18.97488 | 2978 ft | 139 kts | 219° |
| 2026-04-18 20:06 | 50.38085 | 18.96543 | 2973 ft | 139 kts | 219° |
| 2026-04-18 20:07 | 50.37331 | 18.95619 | 2974 ft | 139 kts | 219° |
| 2026-04-18 20:07 | 50.36563 | 18.94666 | 2979 ft | 139 kts | 219° |
| 2026-04-18 20:07 | 50.35808 | 18.93742 | 2971 ft | 139 kts | 219° |
| 2026-04-18 20:07 | 50.35048 | 18.92800 | 2978 ft | 139 kts | 219° |
| 2026-04-18 20:08 | 50.34285 | 18.91867 | 2979 ft | 139 kts | 219° |
| 2026-04-18 20:08 | 50.33526 | 18.90927 | 2975 ft | 139 kts | 219° |
| 2026-04-18 20:08 | 50.32763 | 18.89995 | 2972 ft | 139 kts | 218° |
| 2026-04-18 20:08 | 50.32002 | 18.89054 | 2978 ft | 139 kts | 219° |
| 2026-04-18 20:09 | 50.31239 | 18.88120 | 2976 ft | 139 kts | 218° |
| 2026-04-18 20:09 | 50.30477 | 18.87179 | 2976 ft | 139 kts | 219° |
| 2026-04-18 20:09 | 50.29714 | 18.86247 | 2979 ft | 139 kts | 218° |
| 2026-04-18 20:09 | 50.28998 | 18.85239 | 2973 ft | 139 kts | 234° |
| 2026-04-18 20:10 | 50.28504 | 18.83945 | 2978 ft | 139 kts | 238° |
| 2026-04-18 20:10 | 50.27941 | 18.82718 | 2937 ft | 140 kts | 234° |
| 2026-04-18 20:10 | 50.27381 | 18.81468 | 2814 ft | 141 kts | 238° |
| 2026-04-18 20:10 | 50.27030 | 18.80081 | 2759 ft | 137 kts | 261° |
| 2026-04-18 20:11 | 50.27004 | 18.78560 | 2535 ft | 141 kts | 274° |
| 2026-04-18 20:11 | 50.27014 | 18.77079 | 2368 ft | 134 kts | 269° |
| 2026-04-18 20:11 | 50.26972 | 18.75612 | 2062 ft | 133 kts | 268° |
| 2026-04-18 20:11 | 50.26927 | 18.74238 | 1772 ft | 118 kts | 269° |
| 2026-04-18 20:12 | 50.26908 | 18.73028 | 1553 ft | 110 kts | 271° |
| 2026-04-18 20:12 | 50.26881 | 18.71841 | 1385 ft | 106 kts | 268° |
| 2026-04-18 20:12 | 50.26841 | 18.70708 | 1226 ft | 105 kts | 269° |
| 2026-04-18 20:12 | 50.26817 | 18.69586 | 1090 ft | 102 kts | 268° |
| 2026-04-18 20:13 | 50.26774 | 18.68564 | 992 ft | 85 kts | 268° |
| 2026-04-18 20:13 | 50.26749 | 18.67709 | 868 ft | 70 kts | 269° |
| 2026-04-18 20:13 | 50.26735 | 18.67148 | 862 ft | 28 kts | 266° |
| 2026-04-18 20:13 | 50.26717 | 18.66915 | 860 ft | 10 kts | 253° |
| 2026-04-18 20:14 | 50.26739 | 18.66908 | 854 ft | 8 kts | 101° |
| 2026-04-18 20:14 | 50.26732 | 18.67025 | 861 ft | 13 kts | 84° |
| 2026-04-18 20:14 | 50.26735 | 18.67186 | 862 ft | 17 kts | 89° |
| 2026-04-18 20:14 | 50.26741 | 18.67384 | 863 ft | 20 kts | 88° |
| 2026-04-18 20:15 | 50.26747 | 18.67616 | 853 ft | 23 kts | 87° |
| 2026-04-18 20:15 | 50.26755 | 18.67834 | 851 ft | 15 kts | 87° |
| 2026-04-18 20:15 | 50.26804 | 18.67888 | 862 ft | 12 kts | 4° |
| 2026-04-18 20:15 | 50.26900 | 18.67900 | 859 ft | 16 kts | 4° |
| 2026-04-18 20:16 | 50.27017 | 18.67914 | 862 ft | 17 kts | 3° |
| 2026-04-18 20:16 | 50.27061 | 18.67824 | 855 ft | 14 kts | 289° |
| 2026-04-18 20:16 | 50.27096 | 18.67684 | 857 ft | 7 kts | 317° |
| 2026-04-18 20:16 | 50.27140 | 18.67640 | 862 ft | 5 kts | 287° |
| 2026-04-18 20:17 | 50.27143 | 18.67626 | 857 ft | 0 kts | 285° |